createdAt,value
2018-08-03T00:00:39.187Z,0.00
2018-08-03T00:01:39.223Z,0.00
2018-08-03T00:02:39.240Z,0.00
2018-08-03T00:03:39.275Z,0.00
2018-08-03T00:04:39.301Z,0.00
2018-08-03T00:05:39.326Z,0.00
2018-08-03T00:06:39.353Z,0.00
2018-08-03T00:07:39.382Z,0.00
2018-08-03T00:08:39.411Z,0.00
2018-08-03T00:09:39.436Z,0.00
2018-08-03T00:10:39.464Z,0.00
2018-08-03T00:11:39.493Z,0.00
2018-08-03T00:12:39.523Z,0.00
2018-08-03T00:13:39.544Z,0.00
2018-08-03T00:14:39.580Z,0.00
2018-08-03T00:15:39.603Z,0.00
2018-08-03T00:16:39.630Z,0.00
2018-08-03T00:17:39.660Z,0.00
2018-08-03T00:18:39.690Z,0.00
2018-08-03T00:19:39.715Z,0.00
2018-08-03T00:20:39.741Z,0.00
2018-08-03T00:21:39.773Z,0.00
2018-08-03T00:22:39.800Z,0.00
2018-08-03T00:23:39.823Z,0.00
2018-08-03T00:24:39.856Z,0.00
2018-08-03T00:25:39.879Z,0.00
2018-08-03T00:26:39.908Z,0.00
2018-08-03T00:27:39.941Z,0.00
2018-08-03T00:28:39.971Z,0.00
2018-08-03T00:29:39.991Z,0.00
2018-08-03T00:30:40.026Z,0.00
2018-08-03T00:31:40.052Z,0.00
2018-08-03T00:32:40.079Z,0.00
2018-08-03T00:33:40.104Z,0.00
2018-08-03T00:34:40.129Z,0.00
2018-08-03T00:35:40.155Z,0.00
2018-08-03T00:36:40.185Z,0.00
2018-08-03T00:37:40.216Z,0.00
2018-08-03T00:38:40.239Z,0.00
2018-08-03T00:39:40.272Z,0.00
2018-08-03T00:40:40.299Z,0.00
2018-08-03T00:41:40.321Z,0.00
2018-08-03T00:42:40.351Z,0.00
2018-08-03T00:43:40.379Z,0.00
2018-08-03T00:44:40.403Z,0.00
2018-08-03T00:45:40.474Z,0.00
2018-08-03T00:46:40.463Z,0.00
2018-08-03T00:47:40.490Z,0.00
2018-08-03T00:48:40.523Z,0.00
2018-08-03T00:49:40.545Z,0.00
2018-08-03T00:50:40.567Z,0.00
2018-08-03T00:51:40.600Z,0.00
2018-08-03T00:52:40.629Z,0.00
2018-08-03T00:53:40.655Z,0.00
2018-08-03T00:54:40.685Z,0.00
2018-08-03T00:55:40.708Z,0.00
2018-08-03T00:56:40.740Z,0.00
2018-08-03T00:57:40.766Z,0.00
2018-08-03T00:58:40.794Z,0.00
2018-08-03T00:59:40.823Z,0.00
2018-08-03T01:00:40.847Z,0.00
2018-08-03T01:01:40.873Z,0.00
2018-08-03T01:02:40.903Z,0.00
2018-08-03T01:03:40.935Z,0.00
2018-08-03T01:04:40.959Z,0.00
2018-08-03T01:05:40.986Z,0.00
2018-08-03T01:06:41.013Z,0.00
2018-08-03T01:07:41.043Z,0.00
2018-08-03T01:08:41.067Z,0.00
2018-08-03T01:09:41.093Z,0.00
2018-08-03T01:10:41.124Z,0.00
2018-08-03T01:11:41.156Z,0.00
2018-08-03T01:12:41.183Z,0.00
2018-08-03T01:13:41.209Z,0.00
2018-08-03T01:14:41.235Z,0.00
2018-08-03T01:15:41.263Z,4.00
2018-08-03T01:16:41.288Z,0.00
2018-08-03T01:17:41.315Z,0.00
2018-08-03T01:18:41.347Z,0.00
2018-08-03T01:19:41.374Z,0.00
2018-08-03T01:20:41.399Z,0.00
2018-08-03T01:21:41.431Z,0.00
2018-08-03T01:22:41.453Z,0.00
2018-08-03T01:23:41.485Z,0.00
2018-08-03T01:24:41.505Z,0.00
2018-08-03T01:25:41.535Z,0.00
2018-08-03T01:26:41.569Z,0.00
2018-08-03T01:27:41.592Z,0.00
2018-08-03T01:28:41.619Z,0.00
2018-08-03T01:29:41.647Z,0.00
2018-08-03T01:30:41.669Z,0.00
2018-08-03T01:31:41.703Z,0.00
2018-08-03T01:32:41.735Z,0.00
2018-08-03T01:33:41.751Z,0.00
2018-08-03T01:34:41.780Z,0.00
2018-08-03T01:35:41.814Z,0.00
2018-08-03T01:36:41.835Z,0.00
2018-08-03T01:37:41.894Z,0.00
2018-08-03T01:38:41.893Z,0.00
2018-08-03T01:39:41.923Z,0.00
2018-08-03T01:40:41.951Z,0.00
2018-08-03T01:41:41.973Z,0.00
2018-08-03T01:42:42.002Z,0.00
2018-08-03T01:43:42.033Z,0.00
2018-08-03T01:44:42.053Z,0.00
2018-08-03T01:45:42.085Z,0.00
2018-08-03T01:46:42.106Z,0.00
2018-08-03T01:47:42.140Z,0.00
2018-08-03T01:48:42.166Z,0.00
2018-08-03T01:49:42.193Z,0.00
2018-08-03T01:50:42.219Z,0.00
2018-08-03T01:51:42.247Z,0.00
2018-08-03T01:52:42.275Z,0.00
2018-08-03T01:53:42.305Z,0.00
2018-08-03T01:54:42.325Z,0.00
2018-08-03T01:55:42.355Z,0.00
2018-08-03T01:56:42.389Z,0.00
2018-08-03T01:57:42.415Z,0.00
2018-08-03T01:58:42.435Z,0.00
2018-08-03T01:59:42.467Z,0.00
2018-08-03T02:00:42.491Z,0.00
2018-08-03T02:01:42.519Z,0.00
2018-08-03T02:02:42.547Z,0.00
2018-08-03T02:03:42.576Z,0.00
2018-08-03T02:04:42.601Z,0.00
2018-08-03T02:05:42.625Z,0.00
2018-08-03T02:06:42.655Z,0.00
2018-08-03T02:07:42.683Z,0.00
2018-08-03T02:08:42.711Z,0.00
2018-08-03T02:09:42.740Z,0.00
2018-08-03T02:10:42.768Z,0.00
2018-08-03T02:11:42.794Z,0.00
2018-08-03T02:12:42.815Z,0.00
2018-08-03T02:13:42.847Z,0.00
2018-08-03T02:14:42.870Z,0.00
2018-08-03T02:15:42.906Z,4.00
2018-08-03T02:16:42.930Z,0.00
2018-08-03T02:17:42.960Z,0.00
2018-08-03T02:18:42.979Z,0.00
2018-08-03T02:19:43.015Z,0.00
2018-08-03T02:20:43.043Z,0.00
2018-08-03T02:21:43.061Z,0.00
2018-08-03T02:22:43.092Z,0.00
2018-08-03T02:23:43.117Z,0.00
2018-08-03T02:24:43.147Z,0.00
2018-08-03T02:25:43.174Z,0.00
2018-08-03T02:26:43.201Z,0.00
2018-08-03T02:27:43.228Z,0.00
2018-08-03T02:28:43.257Z,0.00
2018-08-03T02:29:43.279Z,0.00
2018-08-03T02:30:43.311Z,0.00
2018-08-03T02:31:43.345Z,0.00
2018-08-03T02:32:43.363Z,0.00
2018-08-03T02:33:43.387Z,0.00
2018-08-03T02:34:43.415Z,0.00
2018-08-03T02:35:43.439Z,0.00
2018-08-03T02:36:43.470Z,0.00
2018-08-03T02:37:43.495Z,0.00
2018-08-03T02:38:43.523Z,0.00
2018-08-03T02:39:43.554Z,0.00
2018-08-03T02:40:43.579Z,0.00
2018-08-03T02:41:43.605Z,4.00
2018-08-03T02:42:43.634Z,0.00
2018-08-03T02:43:43.661Z,0.00
2018-08-03T02:44:43.692Z,0.00
2018-08-03T02:45:43.719Z,0.00
2018-08-03T02:46:43.743Z,0.00
2018-08-03T02:47:43.774Z,0.00
2018-08-03T02:48:43.796Z,0.00
2018-08-03T02:49:43.821Z,0.00
2018-08-03T02:50:43.848Z,4.00
2018-08-03T02:51:43.896Z,4.00
2018-08-03T02:52:43.904Z,4.00
2018-08-03T02:53:43.928Z,4.00
2018-08-03T02:54:43.960Z,4.00
2018-08-03T02:55:43.984Z,4.00
2018-08-03T02:56:44.018Z,0.00
2018-08-03T02:57:44.041Z,0.00
2018-08-03T02:58:44.063Z,0.00
2018-08-03T02:59:44.098Z,0.00
2018-08-03T03:00:44.122Z,8.00
2018-08-03T03:01:44.151Z,4.00
2018-08-03T03:02:44.173Z,4.00
2018-08-03T03:03:44.196Z,4.00
2018-08-03T03:04:44.226Z,4.00
2018-08-03T03:05:44.254Z,8.00
2018-08-03T03:06:44.281Z,4.00
2018-08-03T03:07:44.308Z,8.00
2018-08-03T03:08:44.335Z,8.00
2018-08-03T03:09:44.361Z,8.00
2018-08-03T03:10:44.386Z,8.00
2018-08-03T03:19:44.722Z,36.00
2018-08-03T03:21:44.682Z,48.00
2018-08-03T03:22:44.934Z,56.00
2018-08-03T03:33:45.009Z,188.00
2018-08-03T03:34:46.365Z,212.00
2018-08-03T03:47:45.384Z,532.00
2018-08-03T03:48:45.420Z,564.00
2018-08-03T03:49:45.434Z,592.00
2018-08-03T03:50:45.484Z,624.00
2018-08-03T03:51:45.492Z,656.00
2018-08-03T03:52:45.513Z,688.00
2018-08-03T03:53:45.542Z,720.00
2018-08-03T03:54:45.576Z,752.00
2018-08-03T03:55:45.598Z,788.00
2018-08-03T03:56:45.635Z,820.00
2018-08-03T03:57:45.652Z,856.00
2018-08-03T03:58:45.680Z,888.00
2018-08-03T03:59:45.715Z,924.00
2018-08-03T04:00:45.735Z,956.00
2018-08-03T04:01:45.756Z,992.00
2018-08-03T04:02:45.786Z,1028.00
2018-08-03T04:03:45.843Z,1064.00
2018-08-03T04:05:45.864Z,1136.00
2018-08-03T04:06:45.897Z,1172.00
2018-08-03T04:07:45.938Z,1204.00
2018-08-03T04:08:45.950Z,1240.00
2018-08-03T04:09:45.992Z,1276.00
2018-08-03T04:10:46.003Z,1316.00
2018-08-03T04:11:46.027Z,1352.00
2018-08-03T04:12:46.062Z,1388.00
2018-08-03T04:13:46.083Z,1424.00
2018-08-03T04:14:46.106Z,1460.00
2018-08-03T04:15:46.140Z,1496.00
2018-08-03T04:16:46.168Z,1528.00
2018-08-03T04:17:46.187Z,1560.00
2018-08-03T04:18:46.217Z,1600.00
2018-08-03T04:19:46.448Z,1632.00
2018-08-03T04:20:46.270Z,1668.00
2018-08-03T04:21:46.317Z,1704.00
2018-08-03T04:22:46.326Z,1736.00
2018-08-03T04:23:46.350Z,1768.00
2018-08-03T04:24:46.376Z,1800.00
2018-08-03T04:25:46.430Z,1836.00
2018-08-03T04:26:46.431Z,1868.00
2018-08-03T04:28:46.484Z,1932.00
2018-08-03T04:30:46.536Z,1996.00
2018-08-03T04:31:46.566Z,2024.00
2018-08-03T04:32:46.598Z,2056.00
2018-08-03T04:33:46.624Z,2084.00
2018-08-03T04:34:46.648Z,2116.00
2018-08-03T04:35:46.675Z,2144.00
2018-08-03T04:36:46.698Z,2176.00
2018-08-03T04:37:46.734Z,2208.00
2018-08-03T04:38:46.773Z,2236.00
2018-08-03T04:40:46.804Z,2296.00
2018-08-03T04:41:46.850Z,2328.00
2018-08-03T04:42:46.864Z,2352.00
2018-08-03T04:43:46.890Z,2376.00
2018-08-03T04:44:46.936Z,2408.00
2018-08-03T04:45:46.963Z,2432.00
2018-08-03T04:46:46.968Z,2456.00
2018-08-03T04:47:46.998Z,2484.00
2018-08-03T04:48:47.057Z,2512.00
2018-08-03T04:49:47.058Z,2536.00
2018-08-03T04:50:47.083Z,2560.00
2018-08-03T04:51:47.112Z,2576.00
2018-08-03T04:52:47.134Z,2608.00
2018-08-03T04:53:47.163Z,2632.00
2018-08-03T04:54:47.254Z,2656.00
2018-08-03T04:55:47.220Z,2680.00
2018-08-03T04:56:47.242Z,2700.00
2018-08-03T04:57:47.279Z,2724.00
2018-08-03T04:58:47.295Z,2744.00
2018-08-03T04:59:47.345Z,2768.00
2018-08-03T05:00:47.355Z,2796.00
2018-08-03T05:01:47.380Z,2812.00
2018-08-03T05:02:47.400Z,2836.00
2018-08-03T05:03:47.427Z,2856.00
2018-08-03T05:04:47.487Z,2876.00
2018-08-03T05:05:47.486Z,2896.00
2018-08-03T05:06:47.718Z,2916.00
2018-08-03T05:07:47.540Z,2936.00
2018-08-03T05:08:47.571Z,2956.00
2018-08-03T05:09:47.593Z,2972.00
2018-08-03T05:10:47.624Z,2988.00
2018-08-03T05:11:47.647Z,3012.00
2018-08-03T05:12:47.691Z,3028.00
2018-08-03T05:13:47.709Z,3044.00
2018-08-03T05:14:47.734Z,3064.00
2018-08-03T05:15:47.762Z,3084.00
2018-08-03T05:16:47.784Z,3092.00
2018-08-03T05:17:47.827Z,3112.00
2018-08-03T05:18:47.851Z,3132.00
2018-08-03T05:19:48.192Z,3148.00
2018-08-03T05:20:47.894Z,3164.00
2018-08-03T05:21:47.919Z,3160.00
2018-08-03T05:22:47.946Z,3200.00
2018-08-03T05:23:47.973Z,3212.00
2018-08-03T05:24:48.004Z,3232.00
2018-08-03T05:25:48.026Z,3252.00
2018-08-03T05:26:48.053Z,3264.00
2018-08-03T05:27:48.097Z,3280.00
2018-08-03T05:29:48.139Z,3320.00
2018-08-03T05:30:48.374Z,3336.00
2018-08-03T05:31:48.188Z,3348.00
2018-08-03T05:32:48.216Z,3372.00
2018-08-03T05:33:48.244Z,3392.00
2018-08-03T05:34:48.287Z,3412.00
2018-08-03T05:35:48.316Z,3428.00
2018-08-03T05:36:48.324Z,3444.00
2018-08-03T05:37:48.368Z,3460.00
2018-08-03T05:38:48.379Z,3476.00
2018-08-03T05:39:48.404Z,3492.00
2018-08-03T05:40:48.750Z,3512.00
2018-08-03T05:41:48.474Z,3524.00
2018-08-03T05:42:48.497Z,3532.00
2018-08-03T05:43:48.834Z,3552.00
2018-08-03T05:44:48.546Z,3556.00
2018-08-03T05:45:48.569Z,3568.00
2018-08-03T05:46:48.600Z,3580.00
2018-08-03T05:47:48.942Z,3600.00
2018-08-03T05:48:48.652Z,3608.00
2018-08-03T05:49:48.695Z,3616.00
2018-08-03T05:50:48.718Z,3632.00
2018-08-03T05:51:48.736Z,3640.00
2018-08-03T05:52:48.756Z,3660.00
2018-08-03T05:53:49.112Z,3664.00
2018-08-03T05:54:48.812Z,3688.00
2018-08-03T05:55:48.836Z,3704.00
2018-08-03T05:56:48.866Z,3716.00
2018-08-03T05:57:48.901Z,3732.00
2018-08-03T05:58:48.920Z,3748.00
2018-08-03T05:59:48.945Z,3764.00
2018-08-03T06:00:48.976Z,3776.00
2018-08-03T06:01:49.211Z,3792.00
2018-08-03T06:02:49.031Z,3800.00
2018-08-03T06:03:49.054Z,3808.00
2018-08-03T06:04:49.084Z,3828.00
2018-08-03T06:05:49.112Z,3840.00
2018-08-03T06:06:49.142Z,3856.00
2018-08-03T06:07:49.171Z,3880.00
2018-08-03T06:08:49.192Z,3900.00
2018-08-03T06:09:49.226Z,3916.00
2018-08-03T06:10:49.267Z,3936.00
2018-08-03T06:11:49.293Z,3960.00
2018-08-03T06:12:49.299Z,3964.00
2018-08-03T06:13:49.345Z,3992.00
2018-08-03T06:14:49.356Z,4004.00
2018-08-03T06:15:49.403Z,4032.00
2018-08-03T06:16:49.633Z,4044.00
2018-08-03T06:17:49.429Z,4064.00
2018-08-03T06:18:49.459Z,4072.00
2018-08-03T06:19:49.491Z,4096.00
2018-08-03T06:20:49.521Z,4100.00
2018-08-03T06:21:49.569Z,4112.00
2018-08-03T06:22:49.573Z,4128.00
2018-08-03T06:23:49.613Z,4140.00
2018-08-03T06:24:49.649Z,4152.00
2018-08-03T06:25:49.854Z,4156.00
2018-08-03T06:26:49.681Z,4180.00
2018-08-03T06:27:49.724Z,4192.00
2018-08-03T06:28:49.756Z,4204.00
2018-08-03T06:29:49.886Z,4232.00
2018-08-03T06:30:49.810Z,4252.00
2018-08-03T06:31:49.832Z,4292.00
2018-08-03T06:32:49.839Z,4304.00
2018-08-03T06:33:49.877Z,4320.00
2018-08-03T06:34:49.903Z,4340.00
2018-08-03T06:35:49.926Z,4356.00
2018-08-03T06:36:49.954Z,4360.00
2018-08-03T06:37:50.181Z,4400.00
2018-08-03T06:38:50.212Z,4404.00
2018-08-03T06:39:50.034Z,4424.00
2018-08-03T06:40:50.066Z,4440.00
2018-08-03T06:41:50.091Z,4460.00
2018-08-03T06:42:50.117Z,4468.00
2018-08-03T06:43:50.148Z,4492.00
2018-08-03T06:44:50.372Z,4504.00
2018-08-03T06:45:50.208Z,4504.00
2018-08-03T06:46:50.227Z,4524.00
2018-08-03T06:47:50.265Z,4540.00
2018-08-03T06:48:50.303Z,4540.00
2018-08-03T06:49:50.323Z,4560.00
2018-08-03T06:50:50.337Z,4588.00
2018-08-03T06:51:50.364Z,4600.00
2018-08-03T06:52:50.409Z,4644.00
2018-08-03T06:53:50.482Z,4676.00
2018-08-03T06:54:50.446Z,4720.00
2018-08-03T06:55:50.480Z,4752.00
2018-08-03T06:56:50.820Z,4816.00
2018-08-03T06:57:50.534Z,4856.00
2018-08-03T06:58:50.584Z,4912.00
2018-08-03T06:59:50.786Z,4968.00
2018-08-03T07:00:50.616Z,5000.00
2018-08-03T07:01:50.857Z,5044.00
2018-08-03T07:02:50.768Z,5060.00
2018-08-03T07:03:50.714Z,5032.00
2018-08-03T07:04:50.739Z,5028.00
2018-08-03T07:05:50.763Z,5040.00
2018-08-03T07:06:50.805Z,5036.00
2018-08-03T07:07:50.811Z,5068.00
2018-08-03T07:08:50.839Z,5108.00
2018-08-03T07:09:50.861Z,5140.00
2018-08-03T07:10:50.890Z,5196.00
2018-08-03T07:11:50.916Z,5224.00
2018-08-03T07:12:50.946Z,5232.00
2018-08-03T07:13:50.972Z,5244.00
2018-08-03T07:14:51.041Z,5264.00
2018-08-03T07:15:51.029Z,5272.00
2018-08-03T07:16:51.058Z,5320.00
2018-08-03T07:17:51.082Z,5368.00
2018-08-03T07:18:51.109Z,5436.00
2018-08-03T07:19:51.168Z,5556.00
2018-08-03T07:20:51.177Z,5708.00
2018-08-03T07:21:51.196Z,5860.00
2018-08-03T07:22:51.219Z,6076.00
2018-08-03T07:23:51.251Z,6256.00
2018-08-03T07:24:51.274Z,6376.00
2018-08-03T07:25:51.309Z,6456.00
2018-08-03T07:26:51.341Z,6520.00
2018-08-03T07:27:51.361Z,6548.00
2018-08-03T07:28:51.388Z,6576.00
2018-08-03T07:29:51.561Z,6632.00
2018-08-03T07:30:51.446Z,6768.00
2018-08-03T07:31:51.470Z,7040.00
2018-08-03T07:32:51.504Z,7460.00
2018-08-03T07:33:51.531Z,8016.00
2018-08-03T07:34:51.565Z,8644.00
2018-08-03T07:35:51.589Z,9256.00
2018-08-03T07:36:51.668Z,9724.00
2018-08-03T07:37:51.641Z,10060.00
2018-08-03T07:38:51.672Z,10220.00
2018-08-03T07:39:51.701Z,10264.00
2018-08-03T07:40:51.727Z,10088.00
2018-08-03T07:41:51.752Z,10024.00
2018-08-03T07:42:51.809Z,9796.00
2018-08-03T07:43:51.814Z,9784.00
2018-08-03T07:44:51.902Z,9736.00
2018-08-03T07:45:51.873Z,9688.00
2018-08-03T07:46:51.902Z,9716.00
2018-08-03T07:47:51.933Z,9652.00
2018-08-03T07:48:51.953Z,9348.00
2018-08-03T07:49:51.981Z,8984.00
2018-08-03T07:50:52.019Z,8532.00
2018-08-03T07:51:52.043Z,8088.00
2018-08-03T07:52:52.068Z,7760.00
2018-08-03T07:53:52.103Z,7500.00
2018-08-03T07:54:52.129Z,7356.00
2018-08-03T07:55:52.153Z,7316.00
2018-08-03T07:56:52.188Z,7248.00
2018-08-03T07:57:52.209Z,7224.00
2018-08-03T07:58:52.238Z,7200.00
2018-08-03T07:59:52.267Z,7140.00
2018-08-03T08:00:52.296Z,7160.00
2018-08-03T08:01:52.333Z,7076.00
2018-08-03T08:02:52.363Z,6972.00
2018-08-03T08:03:52.385Z,6808.00
2018-08-03T08:04:52.410Z,6732.00
2018-08-03T08:05:52.441Z,6704.00
2018-08-03T08:06:52.469Z,6660.00
2018-08-03T08:07:52.495Z,6512.00
2018-08-03T08:08:52.529Z,6376.00
2018-08-03T08:09:52.553Z,6372.00
2018-08-03T08:10:52.579Z,6364.00
2018-08-03T08:11:52.611Z,6356.00
2018-08-03T08:12:52.644Z,6444.00
2018-08-03T08:13:52.671Z,6504.00
2018-08-03T08:14:52.696Z,6616.00
2018-08-03T08:15:52.727Z,6808.00
2018-08-03T08:16:52.817Z,6796.00
2018-08-03T08:17:52.787Z,6724.00
2018-08-03T08:18:52.817Z,6756.00
2018-08-03T08:19:53.033Z,6576.00
2018-08-03T08:20:52.870Z,6472.00
2018-08-03T08:21:52.898Z,6432.00
2018-08-03T08:22:52.928Z,6380.00
2018-08-03T08:23:52.957Z,6380.00
2018-08-03T08:24:52.990Z,6376.00
2018-08-03T08:25:53.017Z,6344.00
2018-08-03T08:26:53.044Z,6352.00
2018-08-03T08:27:53.066Z,6384.00
2018-08-03T08:28:53.100Z,6360.00
2018-08-03T08:29:53.127Z,6352.00
2018-08-03T08:30:53.157Z,6404.00
2018-08-03T08:31:53.188Z,6368.00
2018-08-03T08:32:53.212Z,6348.00
2018-08-03T08:33:53.251Z,6328.00
2018-08-03T08:34:53.272Z,6376.00
2018-08-03T08:35:53.298Z,6376.00
2018-08-03T08:36:53.332Z,6376.00
2018-08-03T08:37:53.355Z,6428.00
2018-08-03T08:38:53.389Z,6440.00
2018-08-03T08:39:53.413Z,6448.00
2018-08-03T08:40:53.446Z,6488.00
2018-08-03T08:41:53.474Z,6616.00
2018-08-03T08:42:53.502Z,6544.00
2018-08-03T08:43:53.630Z,6564.00
2018-08-03T08:44:53.555Z,6572.00
2018-08-03T08:45:53.588Z,6620.00
2018-08-03T08:46:53.621Z,6584.00
2018-08-03T08:47:53.649Z,6584.00
2018-08-03T08:48:53.673Z,6604.00
2018-08-03T08:49:53.697Z,6600.00
2018-08-03T08:50:53.727Z,6608.00
2018-08-03T08:51:53.757Z,6776.00
2018-08-03T08:52:53.787Z,6616.00
2018-08-03T08:53:53.819Z,6612.00
2018-08-03T08:54:53.958Z,6628.00
2018-08-03T08:55:53.871Z,6612.00
2018-08-03T08:56:53.905Z,6628.00
2018-08-03T08:57:53.930Z,6624.00
2018-08-03T08:58:53.962Z,6760.00
2018-08-03T08:59:53.989Z,6684.00
2018-08-03T09:00:54.122Z,6716.00
2018-08-03T09:01:54.045Z,7024.00
2018-08-03T09:02:54.073Z,6708.00
2018-08-03T09:03:54.101Z,6788.00
2018-08-03T09:04:54.126Z,6840.00
2018-08-03T09:05:54.159Z,6896.00
2018-08-03T09:06:54.230Z,6872.00
2018-08-03T09:07:54.287Z,6880.00
2018-08-03T09:08:54.259Z,6900.00
2018-08-03T09:09:54.284Z,7080.00
2018-08-03T09:10:54.307Z,6952.00
2018-08-03T09:11:54.335Z,6984.00
2018-08-03T09:12:54.361Z,7048.00
2018-08-03T09:13:54.394Z,7048.00
2018-08-03T09:14:54.422Z,7080.00
2018-08-03T09:15:54.446Z,7144.00
2018-08-03T09:16:54.479Z,7192.00
2018-08-03T09:17:54.511Z,7252.00
2018-08-03T09:18:54.539Z,7324.00
2018-08-03T09:19:54.568Z,7380.00
2018-08-03T09:20:54.596Z,7452.00
2018-08-03T09:21:54.621Z,7716.00
2018-08-03T09:22:54.656Z,7544.00
2018-08-03T09:23:54.682Z,7572.00
2018-08-03T09:24:54.711Z,7680.00
2018-08-03T09:25:54.742Z,7696.00
2018-08-03T09:26:54.796Z,7692.00
2018-08-03T09:27:54.796Z,7744.00
2018-08-03T09:28:54.828Z,7784.00
2018-08-03T09:29:54.856Z,7768.00
2018-08-03T09:30:54.933Z,7816.00
2018-08-03T09:31:54.916Z,7832.00
2018-08-03T09:32:54.942Z,7832.00
2018-08-03T09:33:54.971Z,8004.00
2018-08-03T09:34:54.999Z,7884.00
2018-08-03T09:35:55.025Z,7912.00
2018-08-03T09:36:55.060Z,7928.00
2018-08-03T09:37:55.088Z,7968.00
2018-08-03T09:38:55.120Z,8152.00
2018-08-03T09:39:55.157Z,8352.00
2018-08-03T09:40:55.191Z,8128.00
2018-08-03T09:41:55.205Z,8184.00
2018-08-03T09:42:55.255Z,8236.00
2018-08-03T09:43:55.266Z,8284.00
2018-08-03T09:44:55.290Z,8316.00
2018-08-03T09:45:55.323Z,8328.00
2018-08-03T09:46:55.349Z,8504.00
2018-08-03T09:47:55.386Z,8468.00
2018-08-03T09:48:55.407Z,8508.00
2018-08-03T09:49:55.441Z,8520.00
2018-08-03T09:50:55.467Z,8496.00
2018-08-03T09:51:55.497Z,8476.00
2018-08-03T09:52:55.526Z,8460.00
2018-08-03T09:53:55.552Z,8464.00
2018-08-03T09:54:55.585Z,8440.00
2018-08-03T09:55:55.618Z,8484.00
2018-08-03T09:56:55.644Z,8488.00
2018-08-03T09:57:55.670Z,8532.00
2018-08-03T09:58:55.702Z,8580.00
2018-08-03T09:59:55.734Z,8692.00
2018-08-03T10:00:55.762Z,8688.00
2018-08-03T10:01:55.794Z,8756.00
2018-08-03T10:02:55.818Z,8780.00
2018-08-03T10:03:55.846Z,8800.00
2018-08-03T10:04:55.879Z,8836.00
2018-08-03T10:05:55.907Z,8872.00
2018-08-03T10:06:55.934Z,8948.00
2018-08-03T10:07:55.966Z,9044.00
2018-08-03T10:08:55.995Z,9260.00
2018-08-03T10:09:56.020Z,9228.00
2018-08-03T10:10:56.056Z,9372.00
2018-08-03T10:11:56.080Z,9496.00
2018-08-03T10:12:57.524Z,9604.00
2018-08-03T10:13:56.140Z,9716.00
2018-08-03T10:14:56.175Z,9888.00
2018-08-03T10:15:56.201Z,9968.00
2018-08-03T10:16:56.230Z,10068.00
2018-08-03T10:17:56.261Z,10096.00
2018-08-03T10:18:56.293Z,10196.00
2018-08-03T10:19:56.329Z,10356.00
2018-08-03T10:20:56.341Z,10248.00
2018-08-03T10:21:56.376Z,10248.00
2018-08-03T10:22:56.414Z,10296.00
2018-08-03T10:23:56.439Z,10544.00
2018-08-03T10:24:56.464Z,10604.00
2018-08-03T10:25:56.493Z,10720.00
2018-08-03T10:26:56.519Z,10712.00
2018-08-03T10:27:56.553Z,10764.00
2018-08-03T10:28:56.581Z,10884.00
2018-08-03T10:29:56.614Z,10924.00
2018-08-03T10:30:56.644Z,11052.00
2018-08-03T10:31:56.673Z,11240.00
2018-08-03T10:32:56.706Z,11364.00
2018-08-03T10:33:56.732Z,11576.00
2018-08-03T10:34:56.804Z,11720.00
2018-08-03T10:35:56.791Z,12108.00
2018-08-03T10:36:56.823Z,12472.00
2018-08-03T10:37:56.841Z,12868.00
2018-08-03T10:38:56.892Z,13236.00
2018-08-03T10:39:56.923Z,13708.00
2018-08-03T10:40:56.947Z,14228.00
2018-08-03T10:41:56.978Z,14452.00
2018-08-03T10:42:57.088Z,14836.00
2018-08-03T10:43:57.028Z,15236.00
2018-08-03T10:44:57.059Z,15472.00
2018-08-03T10:45:57.098Z,15232.00
2018-08-03T10:46:57.118Z,15064.00
2018-08-03T10:47:57.171Z,14756.00
2018-08-03T10:48:57.184Z,14656.00
2018-08-03T10:49:57.207Z,14804.00
2018-08-03T10:50:57.237Z,15464.00
2018-08-03T10:51:57.271Z,16200.00
2018-08-03T10:52:57.296Z,16824.00
2018-08-03T10:53:57.350Z,16516.00
2018-08-03T10:54:57.358Z,16556.00
2018-08-03T10:55:57.386Z,14572.00
2018-08-03T10:56:57.423Z,15240.00
2018-08-03T10:57:57.448Z,24064.00
2018-08-03T10:58:57.488Z,18960.00
2018-08-03T10:59:57.511Z,17220.00
2018-08-03T11:00:57.543Z,20736.00
2018-08-03T11:01:57.571Z,77504.00
2018-08-03T11:02:58.004Z,72896.00
2018-08-03T11:03:57.644Z,35040.00
2018-08-03T11:04:57.671Z,23392.00
2018-08-03T11:05:57.697Z,15988.00
2018-08-03T11:06:57.732Z,16344.00
2018-08-03T11:07:57.759Z,16940.00
2018-08-03T11:08:57.789Z,18188.00
2018-08-03T11:09:57.822Z,52256.00
2018-08-03T11:10:57.848Z,68256.00
2018-08-03T11:11:57.886Z,21120.00
2018-08-03T11:12:57.916Z,60256.00
2018-08-03T11:13:58.033Z,79456.00
2018-08-03T11:14:57.976Z,81280.00
2018-08-03T11:15:58.011Z,81504.00
2018-08-03T11:16:58.048Z,54560.00
2018-08-03T11:17:58.075Z,78176.00
2018-08-03T11:18:58.113Z,82912.00
2018-08-03T11:19:58.143Z,52608.00
2018-08-03T11:20:58.175Z,85760.00
2018-08-03T11:21:58.211Z,87872.00
2018-08-03T11:22:58.251Z,87328.00
2018-08-03T11:23:58.300Z,89248.00
2018-08-03T11:24:58.323Z,89184.00
2018-08-03T11:25:58.357Z,88320.00
2018-08-03T11:26:58.393Z,28640.00
2018-08-03T11:27:58.427Z,22976.00
2018-08-03T11:28:58.460Z,40608.00
2018-08-03T11:29:58.497Z,21984.00
2018-08-03T11:30:58.537Z,23680.00
2018-08-03T11:31:58.575Z,83680.00
2018-08-03T11:32:58.622Z,92000.00
2018-08-03T11:33:58.645Z,91520.00
2018-08-03T11:34:58.684Z,81376.00
2018-08-03T11:35:58.716Z,92608.00
2018-08-03T11:36:58.751Z,93184.00
2018-08-03T11:37:58.800Z,91552.00
2018-08-03T11:38:58.833Z,87040.00
2018-08-03T11:39:58.868Z,80416.00
2018-08-03T11:40:58.901Z,29600.00
2018-08-03T11:41:58.937Z,88096.00
2018-08-03T11:42:58.974Z,92160.00
2018-08-03T11:43:59.014Z,93760.00
2018-08-03T11:44:59.050Z,94688.00
2018-08-03T11:45:59.085Z,93984.00
2018-08-03T11:46:59.130Z,99648.00
2018-08-03T11:47:59.161Z,96160.00
2018-08-03T11:48:59.200Z,97760.00
2018-08-03T11:49:59.264Z,24224.00
2018-08-03T11:50:59.282Z,22400.00
2018-08-03T11:51:59.315Z,23936.00
2018-08-03T11:52:59.353Z,21600.00
2018-08-03T11:53:59.409Z,23264.00
2018-08-03T11:54:59.424Z,90528.00
2018-08-03T11:55:59.482Z,94400.00
2018-08-03T11:56:59.507Z,96864.00
2018-08-03T11:57:59.544Z,95360.00
2018-08-03T11:58:59.581Z,95424.00
2018-08-03T11:59:59.623Z,95168.00
2018-08-03T12:00:59.660Z,95872.00
2018-08-03T12:01:59.763Z,33152.00
2018-08-03T12:02:59.729Z,91808.00
2018-08-03T12:03:59.768Z,100416.00
2018-08-03T12:04:59.813Z,100800.00
2018-08-03T12:05:59.852Z,100480.00
2018-08-03T12:06:59.891Z,99616.00
2018-08-03T12:07:59.926Z,96256.00
2018-08-03T12:08:59.968Z,97728.00
2018-08-03T12:10:00.007Z,98464.00
2018-08-03T12:11:00.045Z,100352.00
2018-08-03T12:12:00.083Z,101504.00
2018-08-03T12:13:00.123Z,100640.00
2018-08-03T12:14:00.164Z,105600.00
2018-08-03T12:15:00.199Z,110080.00
2018-08-03T12:16:00.245Z,111520.00
2018-08-03T12:17:00.286Z,111968.00
2018-08-03T12:18:00.361Z,113056.00
2018-08-03T12:19:00.364Z,113728.00
2018-08-03T12:20:00.416Z,113536.00
2018-08-03T12:21:00.444Z,82528.00
2018-08-03T12:22:00.485Z,103552.00
2018-08-03T12:23:00.529Z,82592.00
2018-08-03T12:24:00.569Z,74944.00
2018-08-03T12:25:00.607Z,99904.00
2018-08-03T12:26:00.646Z,96224.00
2018-08-03T12:27:00.683Z,105472.00
2018-08-03T12:28:00.729Z,108384.00
2018-08-03T12:29:00.769Z,109472.00
2018-08-03T12:30:00.804Z,109440.00
2018-08-03T12:31:00.846Z,108416.00
2018-08-03T12:32:00.889Z,104896.00
2018-08-03T12:33:00.930Z,102528.00
2018-08-03T12:34:00.971Z,108512.00
2018-08-03T12:35:01.015Z,106304.00
2018-08-03T12:36:01.055Z,105216.00
2018-08-03T12:37:01.107Z,107872.00
2018-08-03T12:38:01.133Z,106880.00
2018-08-03T12:39:01.181Z,108608.00
2018-08-03T12:40:01.829Z,104928.00
2018-08-03T12:41:01.266Z,100064.00
2018-08-03T12:42:01.303Z,99712.00
2018-08-03T12:43:01.345Z,99328.00
2018-08-03T12:44:01.385Z,103040.00
2018-08-03T12:45:01.429Z,103648.00
2018-08-03T12:46:01.534Z,104320.00
2018-08-03T12:47:01.516Z,103040.00
2018-08-03T12:48:01.560Z,104992.00
2018-08-03T12:49:01.599Z,107616.00
2018-08-03T12:50:04.263Z,109248.00
2018-08-03T12:51:01.687Z,113152.00
2018-08-03T12:52:04.351Z,114400.00
2018-08-03T12:57:22.148Z,118400.00
2018-08-03T12:58:21.581Z,118272.00